createdAt,value
2022-10-11T00:00:46.698Z,12.61
2022-10-11T00:03:14.602Z,12.62
2022-10-11T00:05:41.852Z,12.62
2022-10-11T00:08:14.832Z,12.66
2022-10-11T00:10:42.785Z,12.51
2022-10-11T00:13:09.523Z,12.61
2022-10-11T00:15:36.090Z,12.66
2022-10-11T00:18:05.377Z,12.68
2022-10-11T00:20:32.141Z,12.62
2022-10-11T00:22:58.774Z,12.58
2022-10-11T00:25:25.318Z,12.63
2022-10-11T00:27:51.919Z,12.62
2022-10-11T00:30:18.619Z,12.60
2022-10-11T00:32:45.190Z,12.67
2022-10-11T00:35:11.907Z,12.52
2022-10-11T00:37:38.832Z,12.48
2022-10-11T00:40:07.102Z,12.46
2022-10-11T00:42:33.822Z,12.53
2022-10-11T00:45:19.486Z,12.52
2022-10-11T00:47:46.111Z,12.52
2022-10-11T00:50:12.736Z,12.48
2022-10-11T00:52:42.095Z,12.51
2022-10-11T00:55:12.664Z,12.55
2022-10-11T00:57:41.638Z,12.58
2022-10-11T01:00:11.554Z,12.48
2022-10-11T01:02:38.449Z,12.30
2022-10-11T01:05:27.990Z,12.28
2022-10-11T01:07:53.814Z,12.21
2022-10-11T01:10:20.532Z,12.27
2022-10-11T01:13:01.633Z,12.27
2022-10-11T01:15:36.387Z,12.29
2022-10-11T01:18:23.221Z,12.19
2022-10-11T01:21:09.943Z,12.10
2022-10-11T01:23:48.588Z,11.96
2022-10-11T01:26:40.690Z,12.02
2022-10-11T01:29:26.340Z,11.89
2022-10-11T01:31:52.998Z,11.86
2022-10-11T01:34:27.254Z,11.94
2022-10-11T01:36:53.857Z,11.90
2022-10-11T01:39:26.255Z,11.90
2022-10-11T01:41:55.580Z,11.80
2022-10-11T01:44:24.046Z,11.77
2022-10-11T01:46:51.295Z,11.77
2022-10-11T01:49:17.878Z,11.82
2022-10-11T01:51:48.283Z,11.84
2022-10-11T01:54:35.238Z,11.73
2022-10-11T01:57:16.632Z,11.76
2022-10-11T02:00:01.641Z,11.60
2022-10-11T02:02:42.130Z,11.64
2022-10-11T02:05:12.519Z,11.64
2022-10-11T02:07:48.999Z,11.69
2022-10-11T02:10:24.748Z,11.71
2022-10-11T02:12:55.387Z,11.63
2022-10-11T02:15:23.421Z,11.64
2022-10-11T02:17:52.722Z,11.73
2022-10-11T02:20:21.031Z,11.69
2022-10-11T02:22:50.009Z,11.61
2022-10-11T02:25:25.191Z,11.64
2022-10-11T02:27:54.366Z,11.63
2022-10-11T02:30:21.113Z,11.67
2022-10-11T02:32:49.523Z,11.42
2022-10-11T02:35:16.705Z,11.67
2022-10-11T02:38:01.741Z,11.68
2022-10-11T02:40:37.592Z,11.52
2022-10-11T02:43:09.938Z,11.57
2022-10-11T02:45:42.233Z,11.45
2022-10-11T02:48:10.867Z,11.56
2022-10-11T02:50:38.868Z,11.59
2022-10-11T02:53:05.817Z,11.65
2022-10-11T02:55:32.422Z,11.61
2022-10-11T02:57:59.109Z,11.69
2022-10-11T03:00:25.703Z,11.68
2022-10-11T03:02:52.805Z,11.61
2022-10-11T03:05:19.704Z,11.68
2022-10-11T03:07:46.401Z,11.77
2022-10-11T03:10:13.007Z,11.69
2022-10-11T03:12:39.615Z,11.75
2022-10-11T03:15:06.490Z,11.87
2022-10-11T03:17:37.358Z,11.82
2022-10-11T03:20:05.019Z,11.84
2022-10-11T03:22:31.549Z,11.88
2022-10-11T03:25:02.729Z,11.99
2022-10-11T03:27:30.454Z,11.98
2022-10-11T03:29:57.818Z,11.98
2022-10-11T03:32:24.479Z,12.05
2022-10-11T03:34:51.394Z,11.88
2022-10-11T03:37:18.262Z,11.98
2022-10-11T03:39:45.825Z,11.96
2022-10-11T03:42:13.077Z,12.00
2022-10-11T03:44:39.737Z,11.89
2022-10-11T03:47:06.462Z,12.14
2022-10-11T03:49:33.183Z,12.22
2022-10-11T03:51:59.883Z,12.15
2022-10-11T03:54:26.515Z,12.13
2022-10-11T03:56:53.360Z,12.10
2022-10-11T03:59:19.950Z,12.11
2022-10-11T04:01:46.835Z,12.13
2022-10-11T04:04:13.468Z,12.15
2022-10-11T04:06:40.043Z,12.20
2022-10-11T04:09:06.611Z,12.20
2022-10-11T04:11:33.211Z,12.21
2022-10-11T04:13:59.803Z,12.18
2022-10-11T04:16:26.358Z,12.15
2022-10-11T04:18:53.067Z,12.21
2022-10-11T04:21:19.660Z,12.20
2022-10-11T04:23:46.226Z,12.24
2022-10-11T04:26:12.792Z,12.29
2022-10-11T04:28:39.475Z,12.33
2022-10-11T04:31:07.910Z,12.31
2022-10-11T04:33:34.542Z,12.32
2022-10-11T04:36:01.310Z,12.29
2022-10-11T04:38:28.255Z,12.31
2022-10-11T04:40:54.906Z,12.30
2022-10-11T04:43:21.689Z,12.33
2022-10-11T04:45:51.202Z,12.23
2022-10-11T04:48:19.920Z,12.27
2022-10-11T04:50:46.507Z,12.26
2022-10-11T04:53:16.134Z,12.28
2022-10-11T04:55:42.743Z,12.25
2022-10-11T04:58:09.334Z,12.39
2022-10-11T05:00:35.923Z,12.39
2022-10-11T05:03:02.574Z,12.36
2022-10-11T05:05:29.201Z,12.43
2022-10-11T05:07:55.801Z,12.42
2022-10-11T05:10:22.381Z,12.45
2022-10-11T05:12:48.935Z,12.50
2022-10-11T05:15:15.557Z,12.47
2022-10-11T05:17:42.161Z,12.46
2022-10-11T05:20:09.694Z,12.41
2022-10-11T05:22:36.297Z,12.52
2022-10-11T05:25:02.983Z,12.56
2022-10-11T05:27:29.616Z,12.52
2022-10-11T05:29:56.264Z,12.50
2022-10-11T05:32:26.657Z,12.58
2022-10-11T05:34:54.482Z,12.55
2022-10-11T05:37:21.173Z,12.51
2022-10-11T05:39:47.858Z,12.61
2022-10-11T05:42:14.477Z,12.65
2022-10-11T05:44:41.191Z,12.69
2022-10-11T05:47:07.727Z,12.78
2022-10-11T05:49:34.321Z,12.81
2022-10-11T05:52:00.944Z,12.81
2022-10-11T05:54:29.620Z,12.89
2022-10-11T05:56:56.204Z,12.60
2022-10-11T05:59:22.826Z,12.95
2022-10-11T06:01:49.550Z,13.03
2022-10-11T06:04:18.978Z,13.13
2022-10-11T06:06:45.610Z,13.15
2022-10-11T06:09:12.735Z,13.20
2022-10-11T06:11:41.377Z,13.25
2022-10-11T06:14:08.724Z,13.22
2022-10-11T06:16:35.272Z,13.29
2022-10-11T06:19:01.959Z,13.27
2022-10-11T06:21:28.528Z,13.37
2022-10-11T06:24:00.844Z,13.47
2022-10-11T06:26:28.234Z,13.52
2022-10-11T06:28:54.914Z,13.57
2022-10-11T06:31:21.763Z,13.51
2022-10-11T06:33:48.677Z,13.54
2022-10-11T06:36:15.728Z,13.45
2022-10-11T06:38:44.933Z,13.47
2022-10-11T06:41:23.581Z,13.37
2022-10-11T06:43:50.540Z,13.36
2022-10-11T06:48:15.349Z,13.32
2022-10-11T06:50:59.047Z,13.32
2022-10-11T06:53:27.663Z,13.38
2022-10-11T06:55:54.261Z,13.44
2022-10-11T06:58:20.914Z,13.46
2022-10-11T07:00:47.799Z,13.51
2022-10-11T07:03:14.351Z,13.66
2022-10-11T07:05:40.949Z,13.70
2022-10-11T07:08:07.542Z,13.80
2022-10-11T07:10:35.425Z,13.81
2022-10-11T07:13:01.971Z,13.91
2022-10-11T07:15:28.534Z,13.95
2022-10-11T07:17:55.121Z,13.91
2022-10-11T07:20:21.646Z,13.89
2022-10-11T07:22:48.351Z,13.90
2022-10-11T07:25:14.849Z,13.84
2022-10-11T07:27:41.745Z,13.81
2022-10-11T07:30:08.554Z,13.64
2022-10-11T07:32:35.242Z,13.63
2022-10-11T07:35:01.867Z,13.69
2022-10-11T07:37:28.500Z,13.69
2022-10-11T07:39:55.149Z,13.69
2022-10-11T07:42:22.594Z,13.69
2022-10-11T07:44:49.168Z,13.72
2022-10-11T07:47:15.871Z,13.80
2022-10-11T07:49:42.437Z,13.73
2022-10-11T07:52:09.016Z,13.84
2022-10-11T07:54:35.659Z,13.91
2022-10-11T07:57:02.223Z,14.13
2022-10-11T07:59:28.755Z,14.26
2022-10-11T08:01:55.516Z,14.25
2022-10-11T08:04:22.113Z,14.33
2022-10-11T08:06:52.507Z,14.49
2022-10-11T08:09:19.992Z,14.62
2022-10-11T08:11:46.662Z,14.67
2022-10-11T08:14:13.332Z,14.61
2022-10-11T08:16:40.011Z,14.64
2022-10-11T08:19:06.996Z,14.62
2022-10-11T08:21:33.952Z,14.62
2022-10-11T08:24:02.074Z,14.71
2022-10-11T08:26:28.827Z,14.68
2022-10-11T08:28:55.539Z,14.57
2022-10-11T08:31:22.277Z,14.63
2022-10-11T08:33:48.881Z,14.74
2022-10-11T08:36:15.497Z,14.70
2022-10-11T08:38:42.246Z,14.76
2022-10-11T08:41:23.813Z,14.90
2022-10-11T08:44:09.238Z,15.09
2022-10-11T08:46:37.934Z,15.13
2022-10-11T08:49:05.618Z,15.32
2022-10-11T08:51:35.837Z,15.53
2022-10-11T08:54:07.725Z,15.20
2022-10-11T08:56:39.849Z,15.70
2022-10-11T08:59:12.634Z,15.61
2022-10-11T09:01:47.583Z,15.81
2022-10-11T09:04:14.937Z,15.84
2022-10-11T09:07:05.145Z,15.78
2022-10-11T09:09:52.906Z,15.88
2022-10-11T09:12:22.531Z,15.97
2022-10-11T09:14:52.082Z,15.52
2022-10-11T09:17:38.251Z,15.49
2022-10-11T09:20:27.303Z,15.37
2022-10-11T09:22:59.750Z,15.27
2022-10-11T09:25:39.771Z,15.56
2022-10-11T09:28:22.371Z,15.63
2022-10-11T09:30:50.610Z,15.79
2022-10-11T09:33:23.921Z,15.97
2022-10-11T09:35:51.330Z,16.10
2022-10-11T09:38:24.149Z,16.12
2022-10-11T09:41:13.791Z,16.36
2022-10-11T09:43:40.560Z,16.18
2022-10-11T09:46:18.267Z,16.24
2022-10-11T09:48:44.900Z,16.23
2022-10-11T09:51:15.207Z,16.41
2022-10-11T09:53:50.713Z,16.61
2022-10-11T09:56:17.423Z,16.79
2022-10-11T09:58:44.066Z,16.66
2022-10-11T10:01:12.277Z,16.92
2022-10-11T10:03:40.250Z,17.14
2022-10-11T10:06:09.143Z,17.04
2022-10-11T10:08:36.589Z,17.29
2022-10-11T10:11:05.756Z,17.16
2022-10-11T10:13:52.430Z,17.27
2022-10-11T10:16:32.889Z,17.26
2022-10-11T10:19:01.745Z,17.34
2022-10-11T10:21:28.641Z,17.51
2022-10-11T10:23:56.341Z,17.64
2022-10-11T10:26:24.755Z,17.51
2022-10-11T10:28:54.895Z,17.60
2022-10-11T10:31:22.907Z,17.58
2022-10-11T10:33:52.454Z,17.78
2022-10-11T10:36:21.874Z,17.72
2022-10-11T10:38:55.821Z,17.35
2022-10-11T10:41:22.479Z,17.58
2022-10-11T10:43:53.653Z,17.66
2022-10-11T10:46:29.935Z,17.56
2022-10-11T10:49:51.897Z,17.56
2022-10-11T10:52:22.351Z,17.55
2022-10-11T10:54:49.045Z,17.79
2022-10-11T10:57:34.384Z,17.58
2022-10-11T11:00:15.698Z,17.65
2022-10-11T11:02:50.387Z,18.06
2022-10-11T11:05:23.443Z,18.31
2022-10-11T11:07:56.079Z,18.49
2022-10-11T11:10:30.454Z,18.84
2022-10-11T11:13:17.101Z,19.05
2022-10-11T11:15:49.057Z,19.37
2022-10-11T11:18:28.544Z,19.37
2022-10-11T11:21:14.211Z,19.13
2022-10-11T11:23:56.009Z,19.03
2022-10-11T11:26:32.748Z,18.76
2022-10-11T11:29:23.139Z,19.01
2022-10-11T11:32:08.688Z,19.38
2022-10-11T11:34:55.470Z,19.59
2022-10-11T11:37:40.649Z,19.40
2022-10-11T11:40:16.395Z,19.70
2022-10-11T11:42:51.640Z,20.42
2022-10-11T11:45:18.183Z,20.39
2022-10-11T11:47:47.625Z,20.36
2022-10-11T11:50:25.347Z,20.56
2022-10-11T11:52:56.496Z,21.10
2022-10-11T11:55:23.206Z,20.86
2022-10-11T11:57:57.933Z,20.81
2022-10-11T12:00:27.683Z,20.52
2022-10-11T12:03:01.886Z,20.50
2022-10-11T12:05:30.949Z,20.54
2022-10-11T12:08:00.102Z,20.47
2022-10-11T12:10:29.797Z,20.35
2022-10-11T12:13:16.604Z,20.13
2022-10-11T12:16:00.413Z,19.98
2022-10-11T12:18:28.042Z,19.78
2022-10-11T12:21:06.440Z,19.88
2022-10-11T12:23:33.253Z,19.85
2022-10-11T12:26:18.445Z,19.83
2022-10-11T12:28:59.095Z,19.81
2022-10-11T12:31:27.418Z,19.70
2022-10-11T12:34:09.401Z,19.68
2022-10-11T12:36:41.084Z,19.55
2022-10-11T12:39:19.869Z,19.29
2022-10-11T12:41:53.728Z,19.12
2022-10-11T12:44:27.770Z,19.20
2022-10-11T12:46:54.324Z,18.86
2022-10-11T12:49:26.167Z,18.75
2022-10-11T12:51:53.063Z,18.65
2022-10-11T12:54:32.092Z,18.43
2022-10-11T12:57:12.193Z,18.45
2022-10-11T12:59:44.799Z,18.39
2022-10-11T13:02:29.938Z,18.24
2022-10-11T13:05:17.069Z,18.32
2022-10-11T13:07:43.830Z,18.30
2022-10-11T13:10:14.678Z,18.27
2022-10-11T13:12:43.524Z,18.21
2022-10-11T13:15:15.625Z,18.35
2022-10-11T13:17:42.892Z,18.23
2022-10-11T13:20:12.354Z,18.29
2022-10-11T13:22:39.821Z,18.27
2022-10-11T13:25:07.507Z,18.15
2022-10-11T13:27:34.263Z,17.82
2022-10-11T13:30:02.287Z,17.87
2022-10-11T13:32:30.702Z,17.80
2022-10-11T13:35:05.545Z,17.66
2022-10-11T13:37:40.904Z,17.81
2022-10-11T13:40:12.376Z,17.84
2022-10-11T13:42:39.028Z,17.78
2022-10-11T13:45:09.374Z,17.73
2022-10-11T13:47:36.105Z,17.68
2022-10-11T13:50:15.032Z,17.58
2022-10-11T13:52:50.117Z,17.63
2022-10-11T13:55:24.829Z,17.62
2022-10-11T13:57:55.664Z,17.61
2022-10-11T14:00:24.667Z,17.55
2022-10-11T14:02:54.706Z,17.72
2022-10-11T14:05:27.461Z,17.69
2022-10-11T14:07:54.126Z,17.53
2022-10-11T14:10:22.598Z,17.47
2022-10-11T14:13:03.980Z,17.43
2022-10-11T14:15:33.071Z,17.37
2022-10-11T14:18:01.153Z,17.45
2022-10-11T14:20:38.302Z,17.48
2022-10-11T14:23:05.868Z,17.48
2022-10-11T14:25:32.723Z,17.48
2022-10-11T14:27:59.392Z,17.44
2022-10-11T14:30:27.619Z,17.52
2022-10-11T14:32:56.609Z,17.52
2022-10-11T14:35:28.258Z,17.58
2022-10-11T14:37:54.868Z,17.50
2022-10-11T14:40:24.208Z,17.44
2022-10-11T14:42:51.080Z,17.40
2022-10-11T14:45:18.332Z,17.34
2022-10-11T14:47:45.321Z,17.26
2022-10-11T14:50:30.815Z,17.25
2022-10-11T14:52:58.161Z,17.17
2022-10-11T14:55:24.843Z,17.07
2022-10-11T14:57:51.887Z,16.79
2022-10-11T15:00:20.669Z,16.93
2022-10-11T15:02:47.343Z,16.95
2022-10-11T15:05:14.087Z,16.88
2022-10-11T15:07:40.743Z,16.78
2022-10-11T15:10:18.759Z,16.89
2022-10-11T15:12:46.008Z,16.79
2022-10-11T15:15:19.521Z,16.68
2022-10-11T15:17:47.004Z,16.74
2022-10-11T15:20:22.007Z,16.58
2022-10-11T15:22:51.210Z,16.55
2022-10-11T15:25:17.942Z,16.44
2022-10-11T15:27:45.274Z,16.41
2022-10-11T15:30:22.962Z,16.18
2022-10-11T15:32:50.210Z,16.15
2022-10-11T15:35:17.906Z,16.12
2022-10-11T15:37:50.966Z,16.10
2022-10-11T15:40:20.235Z,16.18
2022-10-11T15:42:46.974Z,16.04
2022-10-11T15:45:14.131Z,15.94
2022-10-11T15:47:40.859Z,15.85
2022-10-11T15:50:24.031Z,15.75
2022-10-11T15:52:51.859Z,15.61
2022-10-11T15:55:18.697Z,15.65
2022-10-11T15:57:45.431Z,15.64
2022-10-11T16:00:12.188Z,15.48
2022-10-11T16:02:39.209Z,15.40
2022-10-11T16:05:05.841Z,15.44
2022-10-11T16:07:32.406Z,15.39
2022-10-11T16:09:59.041Z,15.30
2022-10-11T16:12:25.632Z,15.30
2022-10-11T16:14:52.226Z,15.26
2022-10-11T16:17:19.696Z,15.26
2022-10-11T16:19:46.249Z,15.24
2022-10-11T16:22:13.720Z,15.16
2022-10-11T16:24:41.295Z,15.12
2022-10-11T16:27:07.903Z,15.13
2022-10-11T16:29:34.728Z,15.22
2022-10-11T16:32:03.705Z,15.16
2022-10-11T16:34:30.740Z,15.17
2022-10-11T16:36:57.307Z,15.10
2022-10-11T16:39:24.204Z,15.13
2022-10-11T16:41:51.517Z,15.00
2022-10-11T16:44:19.601Z,15.10
2022-10-11T16:46:48.346Z,14.96
2022-10-11T16:49:20.687Z,14.92
2022-10-11T16:51:48.804Z,14.80
2022-10-11T16:54:20.530Z,14.81
2022-10-11T16:56:48.300Z,14.83
2022-10-11T16:59:15.284Z,14.76
2022-10-11T17:01:42.235Z,14.65
2022-10-11T17:04:09.653Z,14.69
2022-10-11T17:06:36.226Z,14.63
2022-10-11T17:09:03.456Z,14.53
2022-10-11T17:11:30.035Z,14.59
2022-10-11T17:13:56.969Z,14.52
2022-10-11T17:16:23.507Z,14.56
2022-10-11T17:18:50.229Z,14.53
2022-10-11T17:21:18.246Z,14.49
2022-10-11T17:23:45.142Z,14.50
2022-10-11T17:26:14.907Z,14.46
2022-10-11T17:28:42.167Z,14.43
2022-10-11T17:31:09.451Z,14.33
2022-10-11T17:33:37.663Z,14.39
2022-10-11T17:36:12.655Z,14.33
2022-10-11T17:38:39.222Z,14.33
2022-10-11T17:41:08.284Z,14.29
2022-10-11T17:43:35.343Z,14.37
2022-10-11T17:46:05.956Z,14.36
2022-10-11T17:48:33.679Z,14.29
2022-10-11T17:51:05.738Z,14.23
2022-10-11T17:53:32.611Z,14.20
2022-10-11T17:56:01.004Z,14.09
2022-10-11T17:58:27.615Z,14.16
2022-10-11T18:00:57.101Z,14.28
2022-10-11T18:03:24.948Z,14.09
2022-10-11T18:05:52.333Z,14.14
2022-10-11T18:08:20.415Z,14.08
2022-10-11T18:10:47.781Z,14.07
2022-10-11T18:13:15.388Z,13.98
2022-10-11T18:15:42.133Z,13.97
2022-10-11T18:18:11.669Z,13.90
2022-10-11T18:20:38.384Z,13.92
2022-10-11T18:23:04.990Z,13.92
2022-10-11T18:25:33.135Z,13.92
2022-10-11T18:27:59.713Z,13.99
2022-10-11T18:30:26.423Z,14.06
2022-10-11T18:32:53.010Z,13.86
2022-10-11T18:35:19.656Z,13.91
2022-10-11T18:37:46.235Z,13.89
2022-10-11T18:40:12.880Z,13.88
2022-10-11T18:42:39.480Z,13.94
2022-10-11T18:45:06.722Z,13.82
2022-10-11T18:47:33.588Z,13.79
2022-10-11T18:50:00.374Z,13.75
2022-10-11T18:52:32.968Z,13.64
2022-10-11T18:55:02.901Z,13.68
2022-10-11T18:57:30.016Z,13.66
2022-10-11T18:59:56.621Z,13.62
2022-10-11T19:02:23.246Z,13.64
2022-10-11T19:04:52.640Z,13.66
2022-10-11T19:07:19.595Z,13.62
2022-10-11T19:09:47.105Z,13.61
2022-10-11T19:12:14.362Z,13.65
2022-10-11T19:14:41.437Z,13.66
2022-10-11T19:17:08.057Z,13.60
2022-10-11T19:19:35.508Z,13.63
2022-10-11T19:22:03.419Z,13.60
2022-10-11T19:24:31.069Z,13.59
2022-10-11T19:27:02.281Z,13.66
2022-10-11T19:29:30.583Z,13.75
2022-10-11T19:31:58.494Z,13.64
2022-10-11T19:34:29.031Z,13.50
2022-10-11T19:36:56.583Z,13.50
2022-10-11T19:39:23.919Z,13.55
2022-10-11T19:41:50.555Z,13.44
2022-10-11T19:44:17.492Z,13.51
2022-10-11T19:46:51.555Z,13.53
2022-10-11T19:49:21.524Z,13.53
2022-10-11T19:51:48.127Z,13.55
2022-10-11T19:54:15.307Z,13.54
2022-10-11T19:56:42.641Z,13.58
2022-10-11T19:59:10.201Z,13.54
2022-10-11T20:01:37.045Z,13.54
2022-10-11T20:04:05.660Z,13.43
2022-10-11T20:06:37.898Z,13.47
2022-10-11T20:09:28.028Z,13.45
2022-10-11T20:11:53.552Z,13.40
2022-10-11T20:14:20.645Z,13.28
2022-10-11T20:16:49.305Z,13.28
2022-10-11T20:19:16.339Z,13.46
2022-10-11T20:21:42.959Z,13.42
2022-10-11T20:24:09.577Z,13.25
2022-10-11T20:26:36.300Z,13.22
2022-10-11T20:29:03.422Z,13.13
2022-10-11T20:31:31.591Z,13.13
2022-10-11T20:34:00.213Z,13.16
2022-10-11T20:36:29.589Z,13.11
2022-10-11T20:38:56.677Z,13.20
2022-10-11T20:41:24.467Z,13.24
2022-10-11T20:43:53.440Z,13.14
2022-10-11T20:46:28.074Z,13.06
2022-10-11T20:49:01.541Z,13.15
2022-10-11T20:51:29.986Z,13.12
2022-10-11T20:53:56.843Z,13.17
2022-10-11T20:56:23.701Z,13.06
2022-10-11T20:58:54.671Z,13.01
2022-10-11T21:01:22.692Z,13.01
2022-10-11T21:03:50.370Z,12.96
2022-10-11T21:06:17.193Z,12.98
2022-10-11T21:08:44.551Z,13.02
2022-10-11T21:11:11.633Z,13.09
2022-10-11T21:13:38.406Z,12.98
2022-10-11T21:16:04.946Z,13.03
2022-10-11T21:18:31.548Z,13.19
2022-10-11T21:20:58.132Z,12.93
2022-10-11T21:23:28.979Z,12.75
2022-10-11T21:25:59.645Z,12.79
2022-10-11T21:28:26.249Z,12.92
2022-10-11T21:30:52.829Z,12.96
2022-10-11T21:33:19.408Z,12.85
2022-10-11T21:35:45.983Z,12.65
2022-10-11T21:38:13.375Z,12.58
2022-10-11T21:40:40.244Z,12.79
2022-10-11T21:43:07.403Z,12.78
2022-10-11T21:45:38.045Z,12.95
2022-10-11T21:48:04.961Z,12.81
2022-10-11T21:50:31.615Z,12.86
2022-10-11T21:52:58.285Z,12.86
2022-10-11T21:55:25.968Z,12.79
2022-10-11T21:57:52.621Z,12.85
2022-10-11T22:00:19.234Z,12.69
2022-10-11T22:02:47.560Z,12.72
2022-10-11T22:05:14.214Z,12.59
2022-10-11T22:07:40.915Z,12.55
2022-10-11T22:10:07.557Z,12.56
2022-10-11T22:12:34.524Z,12.65
2022-10-11T22:15:01.411Z,12.73
2022-10-11T22:17:27.968Z,12.74
2022-10-11T22:19:54.478Z,12.71
2022-10-11T22:22:21.078Z,12.71
2022-10-11T22:24:47.688Z,12.68
2022-10-11T22:27:14.314Z,12.75
2022-10-11T22:29:40.900Z,12.73
2022-10-11T22:32:07.620Z,12.64
2022-10-11T22:34:34.206Z,12.58
2022-10-11T22:37:00.822Z,12.63
2022-10-11T22:39:27.428Z,12.59
2022-10-11T22:41:54.553Z,12.64
2022-10-11T22:44:21.456Z,12.62
2022-10-11T22:46:48.054Z,12.74
2022-10-11T22:49:14.761Z,12.67
2022-10-11T22:51:41.341Z,12.61
2022-10-11T22:54:07.966Z,12.53
2022-10-11T22:56:34.565Z,12.45
2022-10-11T22:59:01.128Z,12.47
2022-10-11T23:01:27.695Z,12.53
2022-10-11T23:03:54.339Z,12.50
2022-10-11T23:06:20.932Z,12.55
2022-10-11T23:08:47.506Z,12.50
2022-10-11T23:11:14.094Z,12.48
2022-10-11T23:13:40.661Z,12.50
2022-10-11T23:16:07.928Z,12.57
2022-10-11T23:18:34.488Z,12.69
2022-10-11T23:21:01.485Z,12.82
2022-10-11T23:23:28.111Z,12.74
2022-10-11T23:26:05.342Z,12.71
2022-10-11T23:28:32.082Z,12.88
2022-10-11T23:30:58.818Z,12.69
2022-10-11T23:33:25.786Z,12.52
2022-10-11T23:35:52.376Z,12.51
2022-10-11T23:38:18.994Z,12.41
2022-10-11T23:40:45.621Z,12.42
2022-10-11T23:43:12.208Z,12.33
2022-10-11T23:45:38.873Z,12.34
2022-10-11T23:48:05.489Z,12.34
2022-10-11T23:50:32.085Z,12.37
2022-10-11T23:52:58.656Z,12.38
2022-10-11T23:55:25.327Z,12.48
2022-10-11T23:57:51.965Z,12.43
